createdAt,value
2023-01-21T00:00:44.746Z,12.13
2023-01-21T00:03:13.099Z,12.43
2023-01-21T00:05:40.073Z,12.02
2023-01-21T00:08:06.937Z,13.75
2023-01-21T00:10:34.039Z,13.70
2023-01-21T00:13:01.046Z,13.10
2023-01-21T00:15:28.132Z,10.45
2023-01-21T00:17:55.092Z,13.10
2023-01-21T00:20:22.020Z,12.15
2023-01-21T00:22:48.965Z,13.73
2023-01-21T00:25:15.991Z,11.23
2023-01-21T00:27:42.902Z,12.32
2023-01-21T00:30:10.796Z,13.98
2023-01-21T00:32:37.715Z,14.43
2023-01-21T00:35:05.879Z,14.40
2023-01-21T00:37:32.976Z,13.30
2023-01-21T00:40:02.959Z,13.30
2023-01-21T00:42:30.059Z,14.98
2023-01-21T00:44:57.501Z,11.55
2023-01-21T00:47:25.145Z,13.77
2023-01-21T00:49:52.184Z,11.85
2023-01-21T00:52:19.124Z,11.98
2023-01-21T00:54:46.051Z,13.38
2023-01-21T00:57:13.932Z,12.23
2023-01-21T00:59:41.140Z,9.25
2023-01-21T01:02:09.195Z,13.75
2023-01-21T01:04:39.218Z,12.52
2023-01-21T01:07:06.534Z,12.82
2023-01-21T01:09:33.384Z,12.68
2023-01-21T01:12:01.019Z,12.07
2023-01-21T01:14:28.028Z,15.45
2023-01-21T01:16:54.924Z,12.55
2023-01-21T01:19:21.739Z,12.27
2023-01-21T01:21:48.904Z,13.77
2023-01-21T01:24:15.781Z,11.80
2023-01-21T01:26:42.841Z,13.23
2023-01-21T01:29:13.557Z,12.25
2023-01-21T01:31:40.583Z,12.00
2023-01-21T01:34:07.778Z,13.50
2023-01-21T01:36:34.809Z,16.98
2023-01-21T01:39:01.890Z,13.35
2023-01-21T01:41:30.035Z,11.88
2023-01-21T01:44:04.719Z,12.48
2023-01-21T01:46:33.740Z,11.10
2023-01-21T01:49:02.069Z,12.90
2023-01-21T01:51:46.478Z,15.02
2023-01-21T01:54:14.991Z,13.45
2023-01-21T01:56:42.846Z,13.43
2023-01-21T01:59:09.728Z,12.82
2023-01-21T02:01:36.808Z,12.35
2023-01-21T02:04:04.825Z,15.05
2023-01-21T02:06:33.749Z,13.85
2023-01-21T02:09:00.574Z,12.43
2023-01-21T02:11:27.444Z,12.30
2023-01-21T02:13:56.455Z,13.35
2023-01-21T02:16:41.951Z,9.07
2023-01-21T02:19:31.818Z,11.82
2023-01-21T02:22:19.993Z,12.60
2023-01-21T02:25:23.134Z,13.27
2023-01-21T02:30:19.483Z,13.68
2023-01-21T02:33:09.081Z,11.93
2023-01-21T02:35:59.768Z,10.02
2023-01-21T02:38:30.280Z,11.55
2023-01-21T02:41:09.593Z,13.65
2023-01-21T02:44:05.162Z,12.10
2023-01-21T02:46:42.852Z,14.05
2023-01-21T02:49:32.271Z,13.05
2023-01-21T02:51:59.169Z,15.90
2023-01-21T02:54:41.444Z,14.48
2023-01-21T02:57:12.575Z,11.85
2023-01-21T02:59:40.111Z,10.90
2023-01-21T03:02:09.785Z,15.38
2023-01-21T03:05:10.048Z,11.52
2023-01-21T03:07:52.283Z,13.93
2023-01-21T03:10:20.151Z,14.52
2023-01-21T03:12:49.725Z,15.82
2023-01-21T03:15:43.804Z,15.40
2023-01-21T03:18:19.423Z,14.50
2023-01-21T03:21:07.168Z,10.43
2023-01-21T03:23:39.463Z,11.90
2023-01-21T03:26:07.715Z,16.05
2023-01-21T03:28:36.315Z,11.57
2023-01-21T03:31:10.558Z,13.45
2023-01-21T03:33:39.458Z,14.88
2023-01-21T03:36:16.616Z,13.05
2023-01-21T03:38:45.046Z,13.75
2023-01-21T03:41:22.910Z,12.02
2023-01-21T03:43:50.204Z,11.10
2023-01-21T03:46:31.423Z,14.30
2023-01-21T03:49:02.556Z,12.10
2023-01-21T03:51:35.386Z,13.30
2023-01-21T03:54:02.275Z,15.38
2023-01-21T03:56:29.202Z,14.95
2023-01-21T03:58:56.094Z,13.93
2023-01-21T04:01:23.065Z,15.43
2023-01-21T04:03:50.009Z,17.30
2023-01-21T04:06:19.099Z,15.15
2023-01-21T04:08:45.941Z,14.23
2023-01-21T04:11:12.789Z,14.70
2023-01-21T04:13:39.673Z,13.93
2023-01-21T04:16:06.990Z,13.80
2023-01-21T04:18:33.881Z,17.83
2023-01-21T04:21:01.071Z,16.27
2023-01-21T04:23:27.903Z,15.13
2023-01-21T04:25:54.695Z,16.08
2023-01-21T04:28:21.558Z,12.70
2023-01-21T04:30:48.579Z,16.25
2023-01-21T04:33:15.593Z,17.25
2023-01-21T04:35:42.432Z,17.85
2023-01-21T04:38:09.317Z,12.82
2023-01-21T04:40:36.119Z,12.60
2023-01-21T04:43:02.938Z,12.82
2023-01-21T04:45:29.745Z,14.18
2023-01-21T04:47:56.612Z,16.27
2023-01-21T04:50:23.434Z,15.07
2023-01-21T04:52:50.279Z,17.15
2023-01-21T04:55:17.123Z,18.35
2023-01-21T04:57:43.967Z,12.77
2023-01-21T05:00:11.188Z,14.38
2023-01-21T05:02:38.090Z,12.82
2023-01-21T05:05:05.399Z,13.80
2023-01-21T05:07:32.223Z,15.85
2023-01-21T05:09:59.064Z,16.30
2023-01-21T05:12:25.941Z,12.07
2023-01-21T05:14:54.305Z,15.52
2023-01-21T05:17:21.465Z,15.55
2023-01-21T05:19:48.295Z,12.30
2023-01-21T05:22:15.119Z,13.23
2023-01-21T05:24:42.045Z,15.40
2023-01-21T05:27:08.989Z,14.27
2023-01-21T05:29:35.849Z,12.32
2023-01-21T05:32:02.825Z,15.43
2023-01-21T05:34:29.728Z,12.25
2023-01-21T05:36:56.587Z,15.57
2023-01-21T05:39:23.471Z,13.40
2023-01-21T05:41:50.295Z,14.02
2023-01-21T05:44:17.900Z,15.68
2023-01-21T05:46:44.858Z,13.88
2023-01-21T05:49:11.673Z,13.65
2023-01-21T05:51:38.504Z,14.85
2023-01-21T05:54:05.425Z,14.75
2023-01-21T05:56:32.287Z,14.30
2023-01-21T05:58:59.105Z,15.88
2023-01-21T06:01:25.927Z,18.73
2023-01-21T06:03:52.858Z,16.98
2023-01-21T06:06:19.919Z,20.13
2023-01-21T06:08:46.758Z,14.80
2023-01-21T06:11:13.567Z,17.00
2023-01-21T06:13:40.483Z,13.85
2023-01-21T06:16:07.814Z,17.45
2023-01-21T06:18:34.843Z,17.52
2023-01-21T06:21:02.001Z,17.23
2023-01-21T06:23:29.025Z,22.15
2023-01-21T06:26:02.227Z,16.83
2023-01-21T06:28:29.916Z,19.25
2023-01-21T06:30:56.967Z,17.27
2023-01-21T06:33:23.981Z,17.90
2023-01-21T06:35:50.837Z,17.95
2023-01-21T06:38:17.801Z,23.27
2023-01-21T06:40:44.745Z,16.55
2023-01-21T06:43:11.666Z,17.90
2023-01-21T06:45:38.525Z,21.65
2023-01-21T06:48:05.535Z,17.45
2023-01-21T06:50:32.434Z,17.23
2023-01-21T06:52:59.373Z,21.95
2023-01-21T06:55:26.384Z,18.70
2023-01-21T06:57:53.231Z,20.92
2023-01-21T07:00:20.573Z,19.65
2023-01-21T07:02:47.495Z,16.42
2023-01-21T07:05:15.661Z,17.88
2023-01-21T07:07:42.691Z,19.20
2023-01-21T07:10:10.375Z,20.42
2023-01-21T07:12:37.272Z,19.00
2023-01-21T07:15:04.654Z,15.65
2023-01-21T07:17:31.643Z,17.80
2023-01-21T07:19:58.543Z,18.35
2023-01-21T07:22:25.466Z,20.05
2023-01-21T07:24:52.268Z,17.73
2023-01-21T07:27:19.245Z,23.42
2023-01-21T07:29:46.103Z,19.65
2023-01-21T07:32:13.072Z,21.05
2023-01-21T07:34:39.965Z,18.42
2023-01-21T07:37:06.801Z,20.17
2023-01-21T07:39:33.661Z,20.90
2023-01-21T07:42:00.531Z,20.33
2023-01-21T07:44:27.549Z,21.63
2023-01-21T07:46:54.759Z,21.38
2023-01-21T07:49:21.590Z,18.95
2023-01-21T07:51:48.636Z,22.13
2023-01-21T07:54:15.537Z,18.90
2023-01-21T07:56:42.442Z,20.30
2023-01-21T07:59:10.346Z,21.15
2023-01-21T08:01:37.316Z,19.05
2023-01-21T08:04:04.345Z,19.35
2023-01-21T08:06:31.268Z,20.52
2023-01-21T08:08:58.142Z,20.08
2023-01-21T08:11:25.057Z,17.75
2023-01-21T08:13:51.886Z,23.00
2023-01-21T08:16:20.613Z,21.40
2023-01-21T08:18:47.480Z,19.88
2023-01-21T08:21:14.308Z,21.20
2023-01-21T08:23:41.181Z,21.33
2023-01-21T08:26:08.160Z,25.60
2023-01-21T08:28:35.046Z,20.08
2023-01-21T08:31:10.369Z,21.50
2023-01-21T08:33:37.540Z,21.60
2023-01-21T08:36:06.150Z,22.98
2023-01-21T08:38:33.710Z,24.58
2023-01-21T08:41:00.567Z,23.83
2023-01-21T08:43:27.533Z,25.25
2023-01-21T08:45:58.570Z,23.27
2023-01-21T08:48:25.626Z,21.30
2023-01-21T08:50:52.485Z,22.40
2023-01-21T08:53:19.528Z,23.67
2023-01-21T08:55:46.395Z,22.20
2023-01-21T08:58:13.342Z,23.58
2023-01-21T09:00:41.700Z,21.25
2023-01-21T09:03:08.786Z,23.13
2023-01-21T09:05:35.642Z,21.38
2023-01-21T09:08:02.588Z,18.83
2023-01-21T09:10:48.236Z,22.45
2023-01-21T09:13:16.440Z,21.48
2023-01-21T09:15:43.572Z,26.00
2023-01-21T09:18:10.608Z,23.73
2023-01-21T09:20:37.735Z,23.60
2023-01-21T09:23:24.368Z,21.48
2023-01-21T09:26:04.068Z,19.35
2023-01-21T09:28:32.031Z,21.65
2023-01-21T09:31:03.687Z,21.92
2023-01-21T09:33:30.975Z,22.80
2023-01-21T09:35:59.179Z,20.30
2023-01-21T09:38:26.469Z,21.58
2023-01-21T09:40:53.553Z,20.80
2023-01-21T09:43:37.038Z,23.73
2023-01-21T09:46:04.983Z,23.90
2023-01-21T09:48:35.076Z,26.60
2023-01-21T09:51:05.390Z,28.33
2023-01-21T09:53:58.478Z,25.38
2023-01-21T09:56:41.950Z,26.35
2023-01-21T09:59:38.203Z,26.02
2023-01-21T10:02:05.087Z,28.38
2023-01-21T10:04:36.539Z,29.33
2023-01-21T10:07:19.020Z,29.27
2023-01-21T10:10:04.565Z,29.55
2023-01-21T10:12:35.229Z,28.40
2023-01-21T10:15:04.881Z,29.20
2023-01-21T10:17:51.915Z,27.58
2023-01-21T10:20:29.018Z,28.23
2023-01-21T10:23:05.047Z,34.15
2023-01-21T10:25:32.979Z,28.88
2023-01-21T10:28:03.031Z,35.03
2023-01-21T10:30:42.523Z,32.03
2023-01-21T10:33:23.932Z,25.90
2023-01-21T10:36:09.314Z,26.48
2023-01-21T10:38:48.887Z,28.45
2023-01-21T10:41:37.687Z,29.55
2023-01-21T10:44:25.744Z,30.13
2023-01-21T10:47:07.190Z,32.78
2023-01-21T10:49:55.129Z,31.33
2023-01-21T10:52:42.276Z,30.15
2023-01-21T10:55:33.915Z,33.33
2023-01-21T10:58:17.040Z,28.90
2023-01-21T11:00:47.379Z,29.90
2023-01-21T11:03:21.158Z,27.65
2023-01-21T11:05:49.955Z,30.98
2023-01-21T11:08:23.534Z,30.80
2023-01-21T11:10:51.346Z,30.15
2023-01-21T11:13:18.194Z,27.05
2023-01-21T11:15:47.222Z,29.90
2023-01-21T11:18:37.269Z,30.67
2023-01-21T11:21:20.159Z,32.88
2023-01-21T11:23:57.554Z,30.23
2023-01-21T11:26:35.517Z,27.98
2023-01-21T11:29:14.957Z,31.73
2023-01-21T11:31:43.718Z,29.80
2023-01-21T11:34:18.661Z,27.95
2023-01-21T11:36:55.848Z,37.90
2023-01-21T11:39:26.386Z,29.70
2023-01-21T11:42:04.588Z,30.05
2023-01-21T11:44:34.874Z,27.25
2023-01-21T11:47:01.900Z,32.22
2023-01-21T11:49:30.435Z,29.27
2023-01-21T11:52:13.130Z,29.30
2023-01-21T11:54:40.702Z,32.65
2023-01-21T11:57:27.642Z,26.30
2023-01-21T11:59:56.637Z,28.30
2023-01-21T12:02:31.714Z,25.48
2023-01-21T12:05:32.214Z,29.15
2023-01-21T12:07:59.152Z,29.15
2023-01-21T12:10:35.638Z,29.45
2023-01-21T12:13:18.114Z,26.08
2023-01-21T12:16:03.770Z,26.42
2023-01-21T12:18:40.943Z,28.83
2023-01-21T12:21:29.635Z,26.83
2023-01-21T12:24:20.853Z,28.67
2023-01-21T12:27:25.217Z,27.52
2023-01-21T12:29:58.507Z,28.30
2023-01-21T12:32:32.789Z,29.52
2023-01-21T12:35:20.154Z,26.77
2023-01-21T12:37:51.273Z,30.85
2023-01-21T12:40:33.839Z,26.45
2023-01-21T12:43:18.863Z,26.35
2023-01-21T12:46:13.962Z,29.55
2023-01-21T12:48:57.601Z,25.73
2023-01-21T12:51:35.210Z,26.33
2023-01-21T12:54:21.597Z,24.15
2023-01-21T12:57:09.113Z,26.85
2023-01-21T12:59:42.626Z,24.42
2023-01-21T13:02:18.386Z,22.98
2023-01-21T13:04:53.123Z,19.42
2023-01-21T13:07:43.084Z,18.90
2023-01-21T13:10:39.193Z,17.50
2023-01-21T13:13:30.097Z,18.42
2023-01-21T13:16:00.296Z,18.67
2023-01-21T13:18:35.648Z,21.88
2023-01-21T13:21:31.516Z,18.52
2023-01-21T13:24:24.919Z,20.55
2023-01-21T13:27:11.771Z,15.77
2023-01-21T13:30:05.030Z,23.05
2023-01-21T13:33:05.287Z,21.00
2023-01-21T13:35:44.983Z,18.10
2023-01-21T13:38:30.601Z,22.80
2023-01-21T13:41:12.502Z,21.58
2023-01-21T13:44:17.799Z,19.87
2023-01-21T13:46:50.689Z,19.90
2023-01-21T13:49:47.913Z,22.08
2023-01-21T13:52:25.974Z,24.13
2023-01-21T13:55:22.010Z,17.20
2023-01-21T13:57:56.427Z,21.23
2023-01-21T14:00:37.928Z,18.05
2023-01-21T14:03:32.818Z,20.67
2023-01-21T14:06:04.414Z,20.17
2023-01-21T14:08:42.509Z,18.03
2023-01-21T14:11:15.238Z,18.38
2023-01-21T14:14:20.431Z,17.73
2023-01-21T14:17:16.535Z,19.83
2023-01-21T14:20:05.760Z,19.70
2023-01-21T14:22:47.931Z,19.70
2023-01-21T14:25:30.833Z,15.82
2023-01-21T14:28:36.001Z,18.90
2023-01-21T14:31:12.552Z,18.27
2023-01-21T14:33:56.445Z,20.20
2023-01-21T14:36:37.713Z,21.10
2023-01-21T14:39:19.815Z,19.33
2023-01-21T14:42:04.948Z,22.48
2023-01-21T14:44:58.851Z,20.00
2023-01-21T14:47:31.519Z,20.23
2023-01-21T14:49:59.045Z,17.58
2023-01-21T14:52:33.515Z,17.35
2023-01-21T14:55:00.449Z,17.60
2023-01-21T14:57:37.923Z,19.92
2023-01-21T15:00:25.188Z,18.08
2023-01-21T15:03:12.052Z,17.25
2023-01-21T15:05:39.344Z,17.42
2023-01-21T15:08:10.547Z,15.30
2023-01-21T15:10:38.951Z,15.38
2023-01-21T15:13:27.892Z,18.08
2023-01-21T15:16:16.744Z,15.23
2023-01-21T15:19:16.377Z,14.07
2023-01-21T15:21:46.096Z,15.55
2023-01-21T15:24:19.072Z,18.27
2023-01-21T15:27:20.067Z,16.40
2023-01-21T15:30:02.043Z,16.02
2023-01-21T15:32:29.580Z,15.52
2023-01-21T15:35:00.742Z,15.52
2023-01-21T15:37:29.084Z,15.43
2023-01-21T15:40:02.409Z,16.33
2023-01-21T15:42:54.016Z,17.02
2023-01-21T15:45:32.659Z,17.45
2023-01-21T15:48:18.213Z,19.77
2023-01-21T15:51:23.796Z,17.08
2023-01-21T15:54:02.736Z,16.17
2023-01-21T15:56:51.089Z,19.48
2023-01-21T15:59:41.076Z,16.48
2023-01-21T16:02:10.846Z,15.35
2023-01-21T16:04:46.389Z,15.00
2023-01-21T16:07:20.412Z,14.13
2023-01-21T16:10:00.794Z,18.98
2023-01-21T16:13:08.191Z,16.55
2023-01-21T16:15:54.057Z,18.88
2023-01-21T16:18:29.025Z,16.52
2023-01-21T16:20:56.560Z,20.50
2023-01-21T16:23:26.339Z,18.33
2023-01-21T16:25:53.336Z,19.00
2023-01-21T16:28:20.536Z,18.30
2023-01-21T16:30:55.270Z,18.25
2023-01-21T16:33:22.352Z,18.30
2023-01-21T16:35:56.126Z,22.70
2023-01-21T16:38:26.014Z,21.77
2023-01-21T16:41:23.986Z,22.80
2023-01-21T16:43:53.554Z,19.48
2023-01-21T16:46:39.221Z,22.70
2023-01-21T16:49:15.085Z,24.88
2023-01-21T16:52:01.797Z,22.13
2023-01-21T16:54:32.440Z,21.90
2023-01-21T16:57:00.232Z,29.23
2023-01-21T16:59:48.195Z,26.13
2023-01-21T17:02:31.872Z,24.70
2023-01-21T17:05:00.213Z,26.50
2023-01-21T17:07:35.350Z,23.85
2023-01-21T17:10:05.027Z,28.58
2023-01-21T17:12:33.244Z,27.35
2023-01-21T17:15:02.887Z,27.20
2023-01-21T17:17:32.678Z,26.67
2023-01-21T17:19:59.974Z,28.95
2023-01-21T17:22:28.956Z,24.95
2023-01-21T17:25:00.439Z,27.65
2023-01-21T17:27:27.418Z,26.15
2023-01-21T17:29:54.399Z,32.50
2023-01-21T17:32:31.896Z,28.30
2023-01-21T17:35:16.710Z,29.70
2023-01-21T17:38:03.863Z,28.88
2023-01-21T17:40:45.195Z,30.25
2023-01-21T17:43:22.917Z,27.35
2023-01-21T17:45:50.742Z,25.67
2023-01-21T17:48:27.567Z,25.08
2023-01-21T17:50:54.626Z,26.88
2023-01-21T17:53:33.387Z,25.38
2023-01-21T17:56:04.327Z,26.17
2023-01-21T17:58:48.273Z,22.90
2023-01-21T18:01:15.405Z,24.52
2023-01-21T18:03:42.419Z,24.65
2023-01-21T18:06:28.497Z,28.55
2023-01-21T18:08:56.713Z,27.83
2023-01-21T18:11:23.592Z,26.98
2023-01-21T18:13:51.440Z,26.92
2023-01-21T18:16:18.356Z,23.00
2023-01-21T18:18:45.336Z,23.38
2023-01-21T18:21:19.930Z,28.48
2023-01-21T18:23:47.804Z,24.67
2023-01-21T18:26:24.883Z,24.90
2023-01-21T18:28:51.831Z,21.55
2023-01-21T18:31:18.872Z,27.48
2023-01-21T18:33:45.831Z,23.23
2023-01-21T18:36:12.783Z,23.55
2023-01-21T18:38:39.728Z,22.65
2023-01-21T18:41:08.844Z,25.85
2023-01-21T18:43:45.370Z,26.17
2023-01-21T18:46:16.342Z,26.50
2023-01-21T18:48:43.384Z,23.08
2023-01-21T18:51:10.492Z,23.00
2023-01-21T18:53:37.650Z,28.73
2023-01-21T18:56:06.369Z,23.85
2023-01-21T18:58:33.376Z,26.35
2023-01-21T19:01:01.485Z,25.42
2023-01-21T19:03:32.855Z,27.45
2023-01-21T19:05:59.669Z,24.70
2023-01-21T19:08:28.520Z,29.02
2023-01-21T19:10:58.239Z,29.95
2023-01-21T19:13:25.175Z,31.25
2023-01-21T19:15:53.382Z,28.23
2023-01-21T19:18:20.260Z,27.55
2023-01-21T19:20:47.178Z,32.08
2023-01-21T19:23:17.494Z,27.58
2023-01-21T19:25:54.868Z,26.38
2023-01-21T19:28:21.915Z,26.63
2023-01-21T19:30:50.669Z,26.42
2023-01-21T19:33:17.628Z,26.55
2023-01-21T19:35:45.127Z,27.23
2023-01-21T19:38:16.921Z,26.77
2023-01-21T19:40:43.949Z,26.00
2023-01-21T19:43:13.657Z,24.63
2023-01-21T19:45:46.778Z,25.33
2023-01-21T19:48:15.620Z,26.30
2023-01-21T19:50:42.593Z,29.92
2023-01-21T19:53:10.765Z,28.77
2023-01-21T19:55:38.573Z,28.02
2023-01-21T19:58:14.350Z,28.55
2023-01-21T20:00:41.197Z,29.00
2023-01-21T20:03:11.000Z,25.75
2023-01-21T20:05:37.888Z,26.15
2023-01-21T20:08:04.855Z,27.40
2023-01-21T20:10:31.747Z,26.60
2023-01-21T20:12:58.595Z,37.25
2023-01-21T20:15:29.669Z,31.58
2023-01-21T20:17:57.958Z,26.85
2023-01-21T20:20:29.710Z,28.42
2023-01-21T20:22:56.807Z,26.35
2023-01-21T20:25:35.008Z,25.15
2023-01-21T20:28:02.192Z,24.70
2023-01-21T20:30:31.563Z,26.67
2023-01-21T20:33:01.399Z,26.50
2023-01-21T20:35:28.325Z,27.60
2023-01-21T20:37:55.939Z,30.58
2023-01-21T20:40:24.591Z,25.45
2023-01-21T20:42:51.816Z,24.92
2023-01-21T20:45:20.130Z,26.05
2023-01-21T20:47:50.481Z,29.20
2023-01-21T20:50:22.451Z,30.50
2023-01-21T20:52:50.263Z,30.15
2023-01-21T20:55:20.971Z,34.42
2023-01-21T20:57:48.274Z,41.13
2023-01-21T21:00:23.808Z,38.80
2023-01-21T21:02:50.762Z,43.92
2023-01-21T21:05:18.526Z,37.40
2023-01-21T21:07:45.694Z,40.22
2023-01-21T21:10:21.428Z,39.17
2023-01-21T21:12:48.695Z,34.78
2023-01-21T21:15:16.206Z,30.63
2023-01-21T21:17:43.822Z,29.80
2023-01-21T21:20:25.426Z,32.72
2023-01-21T21:22:52.411Z,27.58
2023-01-21T21:25:21.112Z,25.23
2023-01-21T21:27:48.175Z,26.30
2023-01-21T21:30:23.910Z,24.95
2023-01-21T21:32:50.833Z,28.25
2023-01-21T21:35:27.659Z,30.35
2023-01-21T21:37:55.811Z,27.83
2023-01-21T21:40:23.878Z,28.95
2023-01-21T21:43:09.432Z,26.35
2023-01-21T21:45:36.865Z,24.55
2023-01-21T21:48:22.804Z,26.55
2023-01-21T21:50:59.959Z,27.33
2023-01-21T21:53:30.483Z,29.17
2023-01-21T21:56:04.635Z,31.15
2023-01-21T21:58:32.630Z,28.20
2023-01-21T22:01:16.460Z,28.00
2023-01-21T22:03:43.670Z,26.73
2023-01-21T22:06:10.901Z,26.40
2023-01-21T22:08:38.980Z,27.33
2023-01-21T22:11:07.667Z,26.55
2023-01-21T22:13:40.163Z,23.30
2023-01-21T22:16:08.055Z,25.05
2023-01-21T22:18:35.132Z,22.42
2023-01-21T22:21:13.195Z,28.38
2023-01-21T22:23:40.050Z,25.17
2023-01-21T22:26:08.248Z,23.02
2023-01-21T22:28:35.729Z,25.02
2023-01-21T22:31:26.798Z,22.23
2023-01-21T22:33:53.745Z,25.35
2023-01-21T22:36:21.645Z,26.60
2023-01-21T22:38:48.555Z,25.38
2023-01-21T22:41:17.114Z,23.65
2023-01-21T22:43:50.439Z,22.83
2023-01-21T22:46:21.884Z,26.52
2023-01-21T22:48:48.805Z,24.27
2023-01-21T22:51:16.546Z,25.83
2023-01-21T22:53:46.203Z,24.77
2023-01-21T22:56:14.022Z,22.25
2023-01-21T22:58:40.847Z,26.50
2023-01-21T23:01:08.029Z,26.25
2023-01-21T23:03:35.030Z,25.05
2023-01-21T23:06:06.275Z,26.55
2023-01-21T23:08:33.640Z,29.08
2023-01-21T23:11:04.591Z,25.58
2023-01-21T23:13:32.340Z,29.63
2023-01-21T23:15:59.298Z,25.92
2023-01-21T23:18:29.418Z,24.73
2023-01-21T23:20:56.481Z,23.20
2023-01-21T23:23:24.707Z,26.33
2023-01-21T23:25:51.742Z,23.50
2023-01-21T23:28:18.623Z,22.95
2023-01-21T23:30:46.250Z,24.92
2023-01-21T23:33:13.492Z,24.73
2023-01-21T23:35:40.443Z,23.77
2023-01-21T23:38:07.269Z,24.42
2023-01-21T23:40:34.164Z,19.85
2023-01-21T23:43:01.166Z,24.02
2023-01-21T23:45:28.093Z,24.67
2023-01-21T23:47:55.099Z,22.00
2023-01-21T23:50:22.181Z,20.83
2023-01-21T23:52:49.089Z,21.90
2023-01-21T23:55:17.168Z,23.75
2023-01-21T23:57:44.126Z,22.15
